HST,Max TemperatureF,Mean TemperatureF,Min TemperatureF,Max Dew PointF,MeanDew PointF,Min DewpointF,Max Humidity, Mean Humidity, Min Humidity, Max Sea Level PressureIn, Mean Sea Level PressureIn, Min Sea Level PressureIn, Max VisibilityMiles, Mean VisibilityMiles, Min VisibilityMiles, Max Wind SpeedMPH, Mean Wind SpeedMPH, Max Gust SpeedMPH,PrecipitationIn, CloudCover, Events, WindDirDegrees
2012-9-1,84,78,73,69,65,61,73,62,51,30.04,30.01,29.98,10,10,10,12,5,,0.00,4,,183
2012-9-2,82,78,73,68,64,58,71,62,47,30.05,30.00,29.96,10,10,10,17,5,,0.00,4,,152
2012-9-3,82,78,73,67,64,60,66,61,56,30.04,29.99,29.95,10,10,10,14,6,,0.00,4,,168
2012-9-4,84,78,73,67,64,57,69,60,53,30.06,30.02,29.98,10,10,10,10,7,,0.00,2,,172
2012-9-5,84,78,73,67,65,62,73,62,55,30.07,30.02,29.97,10,10,10,13,6,,0.00,2,,158
2012-9-6,84,78,73,67,65,59,74,62,54,30.01,29.97,29.93,10,10,10,12,6,,0.00,4,,223
2012-9-7,82,78,75,70,66,60,69,64,58,30.01,29.96,29.92,10,10,10,13,7,,0.00,3,,200
2012-9-8,84,78,73,70,67,65,83,68,58,30.06,30.01,29.96,10,10,10,13,7,,0.00,2,,61
2012-9-9,84,80,75,70,67,62,78,66,55,30.07,30.03,29.99,10,10,10,16,5,20,0.00,4,,301
2012-9-10,84,80,75,69,66,60,74,64,54,30.04,30.01,29.96,10,10,10,14,6,,0.00,3,,144
2012-9-11,84,80,75,68,65,59,69,63,50,30.01,29.98,29.94,10,10,10,16,8,21,0.00,5,Rain,154
2012-9-12,82,78,73,68,63,59,65,59,50,30.02,29.97,29.91,10,10,10,16,8,23,0.00,5,,149
2012-9-13,82,77,72,68,64,57,71,63,48,30.03,29.99,29.96,10,10,10,10,5,,0.00,3,,173
2012-9-14,82,77,72,67,63,59,71,60,52,30.04,30.00,29.95,10,10,10,12,6,,0.00,4,,143
2012-9-15,84,78,72,67,63,58,68,59,53,30.03,29.99,29.93,10,10,10,14,7,,0.00,4,,172
2012-9-16,84,78,73,67,63,59,66,58,51,30.03,30.00,29.95,10,10,10,16,7,,0.00,4,,215
2012-9-17,82,78,73,66,63,60,68,60,49,30.00,29.96,29.91,10,10,10,12,8,,0.00,3,,166
2012-9-18,82,78,75,68,65,63,76,64,54,29.98,29.94,29.89,10,10,10,12,5,,0.00,4,Rain,191
2012-9-19,84,78,73,69,66,63,71,64,55,30.01,29.98,29.93,10,10,10,16,7,,0.00,3,Rain,164
2012-9-20,84,80,75,72,68,64,85,70,57,30.05,30.00,29.96,10,10,7,14,9,,0.01,4,Rain,159
2012-9-21,82,78,73,70,67,60,84,69,54,30.02,29.98,29.92,10,10,10,10,6,,0.00,3,,23
2012-9-22,84,78,73,68,67,64,82,67,53,29.99,29.96,29.92,10,10,10,13,6,,0.00,3,,197
2012-9-23,84,78,73,69,66,64,73,64,53,30.01,29.97,29.94,10,10,10,17,7,29,0.00,3,,156
2012-9-24,84,80,77,72,69,65,78,69,53,30.01,29.97,29.92,10,10,10,13,7,,0.00,4,Rain,167
2012-9-25,84,78,73,68,65,62,73,63,56,30.05,29.98,29.94,10,10,10,14,8,,0.00,2,,145
2012-9-26,82,78,73,69,65,60,71,65,56,30.03,29.99,29.93,10,10,10,12,8,,0.00,4,,143
2012-9-27,82,78,73,69,67,62,79,70,56,30.02,29.99,29.95,10,10,10,10,8,,0.00,6,,168
2012-9-28,84,78,73,70,66,63,76,67,56,30.00,29.96,29.90,10,10,10,14,6,,0.00,3,Rain,172
2012-9-29,84,78,73,68,66,63,79,67,56,30.00,29.96,29.91,10,10,10,13,6,,0.00,2,,202
2012-9-30,84,78,73,70,66,64,76,67,53,30.00,29.96,29.91,10,10,10,10,7,,0.00,3,,207